Time;durP1;ratioP1;P1;durP2;ratioP2;P2;SDS_P1;SDS_P2;PMS_P1;PMS_P2;Temp;Humidity;BMP_temperature;BMP_pressure;BME280_temperature;BME280_humidity;BME280_pressure;Samples;Min_cycle;Max_cycle;Signal;HPM_P1;HPM_P2
2022/12/24 00:00:57;;;;;;;4.65;2.55;;;14.70;99.90;;;;;;6305917;22;20324;-58
2022/12/24 00:03:23;;;;;;;5.10;2.30;;;14.70;99.90;;;;;;6305890;22;20007;-58
2022/12/24 00:05:48;;;;;;;4.93;2.80;;;14.70;99.90;;;;;;6278166;22;20502;-58
2022/12/24 00:08:14;;;;;;;5.32;2.50;;;14.70;99.90;;;;;;6304470;22;20007;-59
2022/12/24 00:10:39;;;;;;;5.05;2.58;;;14.70;99.90;;;;;;6278750;22;20060;-59
2022/12/24 00:13:05;;;;;;;5.22;2.80;;;14.70;99.90;;;;;;6303887;22;20047;-58
2022/12/24 00:15:30;;;;;;;5.15;2.92;;;14.70;99.90;;;;;;6306081;22;20015;-58
2022/12/24 00:17:56;;;;;;;5.53;2.97;;;14.70;99.90;;;;;;6305866;22;20014;-58
2022/12/24 00:20:23;;;;;;;6.18;3.20;;;14.70;99.90;;;;;;6277999;22;20066;-59
2022/12/24 00:22:49;;;;;;;6.10;3.15;;;14.70;99.90;;;;;;6277562;22;20057;-58
2022/12/24 00:25:15;;;;;;;5.60;2.60;;;14.70;99.90;;;;;;6305915;22;20706;-59
2022/12/24 00:27:40;;;;;;;6.43;3.22;;;14.70;99.90;;;;;;6305515;22;20019;-58
2022/12/24 00:30:07;;;;;;;7.32;3.40;;;14.70;99.90;;;;;;6305309;22;20011;-58
2022/12/24 00:32:32;;;;;;;6.72;3.70;;;14.70;99.90;;;;;;6306013;22;20014;-59
2022/12/24 00:34:58;;;;;;;6.57;3.70;;;14.70;99.90;;;;;;6305095;22;20306;-58
2022/12/24 00:37:23;;;;;;;6.88;3.50;;;14.70;99.90;;;;;;6304734;22;20064;-58
2022/12/24 00:39:49;;;;;;;7.22;3.80;;;14.70;99.90;;;;;;6277830;22;20341;-58
2022/12/24 00:42:14;;;;;;;6.93;3.60;;;14.70;99.90;;;;;;6277526;22;20011;-59
2022/12/24 00:44:40;;;;;;;6.82;3.40;;;14.70;99.90;;;;;;6305881;22;20012;-58
2022/12/24 00:47:05;;;;;;;6.85;3.60;;;14.70;99.90;;;;;;6305063;22;20073;-58
2022/12/24 00:49:31;;;;;;;7.40;3.55;;;14.80;99.90;;;;;;6278121;22;20066;-58
2022/12/24 00:51:57;;;;;;;6.85;3.97;;;14.70;99.90;;;;;;6304489;22;20016;-58
2022/12/24 00:54:22;;;;;;;6.25;3.60;;;14.70;99.90;;;;;;6305334;22;20003;-58
2022/12/24 00:56:48;;;;;;;5.90;3.40;;;14.70;99.90;;;;;;6304418;22;20015;-59
2022/12/24 00:59:13;;;;;;;7.88;4.22;;;14.70;99.90;;;;;;6305268;22;20013;-59
2022/12/24 01:01:39;;;;;;;6.97;3.85;;;14.80;99.90;;;;;;6305808;22;20009;-59
2022/12/24 01:06:49;;;;;;;7.32;4.35;;;14.80;99.90;;;;;;6304556;22;20019;-59
2022/12/24 01:09:14;;;;;;;7.55;4.47;;;14.70;99.90;;;;;;6277124;22;20011;-58
2022/12/24 01:11:40;;;;;;;8.00;4.82;;;14.80;99.90;;;;;;6305287;22;20042;-58
2022/12/24 01:14:06;;;;;;;7.93;4.72;;;14.70;99.90;;;;;;6304163;22;20333;-59
2022/12/24 01:16:31;;;;;;;8.35;4.80;;;14.80;99.90;;;;;;6305346;22;20019;-58
2022/12/24 01:18:57;;;;;;;7.90;4.88;;;14.70;99.90;;;;;;6277524;22;20015;-59
2022/12/24 01:21:22;;;;;;;7.72;4.50;;;14.80;99.90;;;;;;6304342;22;20011;-59
2022/12/24 01:23:48;;;;;;;7.78;4.55;;;14.80;99.90;;;;;;6304482;22;20007;-59
2022/12/24 01:26:14;;;;;;;7.75;4.90;;;14.80;99.90;;;;;;6305247;22;20015;-59
2022/12/24 01:28:39;;;;;;;7.88;4.60;;;14.70;99.90;;;;;;6305335;22;20078;-59
2022/12/24 01:31:13;;;;;;;7.63;4.70;;;14.80;99.90;;;;;;6304065;22;20022;-58
2022/12/24 01:33:39;;;;;;;7.95;4.50;;;14.80;99.90;;;;;;6305501;22;20426;-59
2022/12/24 01:36:05;;;;;;;8.23;5.10;;;14.80;99.90;;;;;;6303518;22;20026;-59
2022/12/24 01:38:31;;;;;;;7.28;4.13;;;14.80;99.90;;;;;;6304236;22;20034;-59
2022/12/24 01:43:40;;;;;;;7.30;4.38;;;14.70;99.90;;;;;;6304950;22;20019;-59
2022/12/24 01:46:22;;;;;;;7.57;4.45;;;14.80;99.90;;;;;;6304101;22;20015;-59
2022/12/24 01:48:59;;;;;;;8.23;4.70;;;14.80;99.90;;;;;;6304542;22;20042;-59
2022/12/24 01:51:39;;;;;;;7.38;4.20;;;14.80;99.90;;;;;;6276771;22;20011;-59
2022/12/24 01:54:08;;;;;;;6.78;4.07;;;14.80;99.90;;;;;;6303704;22;20054;-59
2022/12/24 01:56:35;;;;;;;8.40;4.20;;;14.80;99.90;;;;;;6277968;22;20045;-59
2022/12/24 01:59:05;;;;;;;6.90;3.92;;;14.80;99.90;;;;;;6304121;22;20003;-59
2022/12/24 02:01:31;;;;;;;6.57;3.72;;;14.80;99.90;;;;;;6305027;22;20336;-59
2022/12/24 02:03:56;;;;;;;7.75;4.00;;;14.80;99.90;;;;;;6304640;22;20018;-59
2022/12/24 02:06:23;;;;;;;8.07;3.80;;;14.80;99.90;;;;;;6304077;22;20015;-59
2022/12/24 02:08:49;;;;;;;7.18;3.80;;;14.80;99.90;;;;;;6304090;22;20034;-59
2022/12/24 02:11:20;;;;;;;7.45;4.07;;;14.80;99.90;;;;;;6304205;22;20379;-59
2022/12/24 02:13:48;;;;;;;;;;;14.80;99.90;;;;;;6304648;22;20015;-59
2022/12/24 02:16:55;;;;;;;6.53;3.67;;;14.70;99.90;;;;;;6303974;22;19914;-59
2022/12/24 02:19:45;;;;;;;7.35;3.83;;;14.80;99.90;;;;;;6303991;22;20010;-59
2022/12/24 02:22:11;;;;;;;6.60;3.40;;;14.80;99.90;;;;;;6276273;22;20057;-59
2022/12/24 02:25:09;;;;;;;7.60;3.50;;;14.80;99.90;;;;;;6304909;22;20015;-59
2022/12/24 02:27:56;;;;;;;6.45;3.65;;;14.80;99.90;;;;;;6305065;22;20046;-59
2022/12/24 02:30:47;;;;;;;7.32;3.60;;;14.80;99.90;;;;;;6276686;22;20336;-59
2022/12/24 02:33:24;;;;;;;6.60;3.40;;;14.80;99.90;;;;;;6304617;22;20011;-59
2022/12/24 02:36:12;;;;;;;6.82;3.25;;;14.80;99.90;;;;;;6303562;22;20250;-59
2022/12/24 02:38:48;;;;;;;5.80;2.90;;;14.80;99.90;;;;;;6303934;22;20076;-59
2022/12/24 02:42:04;;;;;;;6.05;2.80;;;14.70;99.90;;;;;;6303976;22;20011;-59
2022/12/24 02:44:16;;;;;;;7.10;2.70;;;14.80;99.90;;;;;;6303130;22;20083;-59
2022/12/24 02:46:42;;;;;;;6.18;2.60;;;14.80;99.90;;;;;;6304730;22;20007;-59
2022/12/24 02:49:08;;;;;;;6.90;2.80;;;14.80;99.90;;;;;;6303332;22;20004;-59
2022/12/24 02:51:33;;;;;;;5.43;2.35;;;14.80;99.90;;;;;;6304156;22;20494;-60
2022/12/24 02:53:59;;;;;;;6.82;2.92;;;14.80;99.90;;;;;;6304180;22;20075;-59
2022/12/24 02:56:44;;;;;;;9.75;3.20;;;14.80;99.90;;;;;;6304236;22;20046;-59
2022/12/24 02:59:27;;;;;;;10.43;2.92;;;14.80;99.90;;;;;;6303971;22;20038;-59
2022/12/24 03:02:25;;;;;;;10.00;2.97;;;14.80;99.90;;;;;;6303784;22;20108;-59
2022/12/24 03:04:50;;;;;;;9.75;2.85;;;14.80;99.90;;;;;;6304263;22;20041;-59
2022/12/24 03:07:24;;;;;;;11.90;3.20;;;14.80;99.90;;;;;;6303461;22;20085;-59
2022/12/24 03:10:08;;;;;;;10.35;2.85;;;14.80;99.90;;;;;;6304277;22;20338;-59
2022/12/24 03:12:42;;;;;;;10.82;3.25;;;14.80;99.90;;;;;;6303963;22;20009;-59
2022/12/24 03:15:12;;;;;;;11.55;3.22;;;14.80;99.90;;;;;;6303112;22;20011;-59
2022/12/24 03:17:39;;;;;;;11.55;3.17;;;14.80;99.90;;;;;;6276361;22;20450;-59
2022/12/24 03:20:07;;;;;;;9.00;2.47;;;14.80;99.90;;;;;;6303289;22;20047;-60
2022/12/24 03:22:34;;;;;;;12.05;3.00;;;14.80;99.90;;;;;;6276636;22;20440;-59
2022/12/24 03:25:00;;;;;;;13.57;2.70;;;14.80;99.90;;;;;;6303894;22;20026;-59
2022/12/24 03:27:28;;;;;;;11.13;2.92;;;14.80;99.90;;;;;;6303794;22;20112;-59
2022/12/24 03:29:54;;;;;;;11.85;2.92;;;14.80;99.90;;;;;;6250853;22;20042;-60
2022/12/24 03:32:30;;;;;;;9.98;3.17;;;14.80;99.90;;;;;;6303167;22;20015;-60
2022/12/24 03:34:56;;;;;;;10.15;2.80;;;14.80;99.90;;;;;;6303211;22;20011;-59
2022/12/24 03:37:23;;;;;;;10.40;3.40;;;14.80;99.90;;;;;;6303890;22;20007;-59
2022/12/24 03:39:48;;;;;;;12.00;3.15;;;14.80;99.90;;;;;;6303232;22;20042;-59
2022/12/24 03:42:14;;;;;;;10.85;2.90;;;14.80;99.90;;;;;;6276295;22;20018;-59
2022/12/24 03:44:39;;;;;;;11.10;3.10;;;14.80;99.90;;;;;;6304178;22;20094;-60
2022/12/24 03:47:05;;;;;;;11.70;3.20;;;14.80;99.90;;;;;;6302724;22;20030;-60
2022/12/24 03:49:31;;;;;;;12.18;3.10;;;14.80;99.90;;;;;;6303150;22;20019;-60
2022/12/24 03:51:56;;;;;;;12.13;3.10;;;14.80;99.90;;;;;;6303409;22;20011;-59
2022/12/24 03:54:22;;;;;;;13.18;3.10;;;14.80;99.90;;;;;;6276123;22;20023;-59
2022/12/24 03:56:47;;;;;;;12.57;3.60;;;14.80;99.90;;;;;;6303915;22;20368;-60
2022/12/24 03:59:13;;;;;;;11.60;3.15;;;14.80;99.90;;;;;;6276658;22;20041;-60
2022/12/24 04:01:38;;;;;;;10.23;2.72;;;14.80;99.90;;;;;;6276245;22;20455;-60
2022/12/24 04:04:04;;;;;;;11.20;3.10;;;14.80;99.90;;;;;;6302773;22;20433;-60
2022/12/24 04:06:30;;;;;;;10.57;3.25;;;14.80;99.90;;;;;;6303710;22;20124;-60
2022/12/24 04:08:55;;;;;;;11.20;2.90;;;14.80;99.90;;;;;;6275644;22;20048;-60
2022/12/24 04:11:21;;;;;;;14.35;3.55;;;14.80;99.90;;;;;;6304011;22;20385;-60
2022/12/24 04:13:47;;;;;;;11.85;3.50;;;14.80;99.90;;;;;;6303195;22;20043;-60
2022/12/24 04:16:14;;;;;;;11.63;3.30;;;14.80;99.90;;;;;;6303160;22;20047;-60
2022/12/24 04:18:41;;;;;;;11.85;3.20;;;14.80;99.90;;;;;;6303072;22;20015;-60
2022/12/24 04:21:07;;;;;;;10.15;3.13;;;14.80;99.90;;;;;;6303109;22;20011;-60
2022/12/24 04:23:35;;;;;;;12.27;3.30;;;14.80;99.90;;;;;;6303601;22;20008;-60
2022/12/24 04:26:03;;;;;;;11.95;3.50;;;14.80;99.90;;;;;;6275994;22;20054;-60
2022/12/24 04:28:29;;;;;;;13.32;3.22;;;14.80;99.90;;;;;;6275775;22;20495;-60
2022/12/24 04:31:03;;;;;;;12.38;3.20;;;14.80;99.90;;;;;;6303845;22;20034;-60
2022/12/24 04:33:28;;;;;;;10.57;2.95;;;14.80;99.90;;;;;;6302950;22;20011;-60
2022/12/24 04:35:56;;;;;;;11.88;3.30;;;14.80;99.90;;;;;;6303140;22;20041;-60
2022/12/24 04:38:22;;;;;;;13.85;3.40;;;14.80;99.90;;;;;;6302896;22;20018;-60
2022/12/24 04:40:47;;;;;;;12.40;3.58;;;14.80;99.90;;;;;;6303128;22;20007;-60
2022/12/24 04:43:13;;;;;;;11.68;2.90;;;14.80;99.90;;;;;;6276765;22;20332;-60
2022/12/24 04:45:39;;;;;;;12.02;3.58;;;14.80;99.90;;;;;;6305968;22;20011;-60
2022/12/24 04:48:04;;;;;;;15.02;3.42;;;14.80;99.90;;;;;;6304422;22;20011;-60
2022/12/24 04:50:30;;;;;;;12.70;3.38;;;14.80;99.90;;;;;;6305785;22;20011;-60
2022/12/24 04:52:56;;;;;;;12.15;3.63;;;14.80;99.90;;;;;;6277553;22;20061;-60
2022/12/24 04:55:21;;;;;;;13.55;3.67;;;14.80;99.90;;;;;;6305184;22;20490;-60
2022/12/24 04:57:47;;;;;;;13.15;3.42;;;14.80;99.90;;;;;;6277326;22;20079;-60
2022/12/24 05:00:13;;;;;;;11.38;3.50;;;14.80;99.90;;;;;;6277715;22;20057;-60
2022/12/24 05:02:38;;;;;;;10.65;3.08;;;14.80;99.90;;;;;;6277763;22;20011;-60
2022/12/24 05:05:04;;;;;;;13.82;3.25;;;14.80;99.90;;;;;;6277575;22;20023;-60
2022/12/24 05:07:30;;;;;;;16.02;4.05;;;14.80;99.90;;;;;;6305132;22;20679;-60
2022/12/24 05:09:55;;;;;;;15.32;3.58;;;14.80;99.90;;;;;;6304685;22;20019;-60
2022/12/24 05:12:21;;;;;;;16.15;3.90;;;14.80;99.90;;;;;;6304512;22;20015;-60
2022/12/24 05:14:47;;;;;;;13.90;3.80;;;14.80;99.90;;;;;;6304735;22;20478;-60
2022/12/24 05:17:12;;;;;;;12.63;3.75;;;14.80;99.90;;;;;;6304637;22;20485;-60
2022/12/24 05:19:38;;;;;;;13.35;3.80;;;14.80;99.90;;;;;;6305590;22;20030;-60
2022/12/24 05:27:32;;;;;;;12.27;3.33;;;14.80;99.90;;;;;;6305546;22;20015;-60
2022/12/24 05:29:57;;;;;;;12.23;3.53;;;14.80;99.90;;;;;;6304288;22;20007;-60
2022/12/24 05:32:23;;;;;;;15.35;3.90;;;14.80;99.90;;;;;;6304594;22;20725;-60
2022/12/24 05:34:48;;;;;;;12.75;3.95;;;14.80;99.90;;;;;;6305257;22;20015;-60
2022/12/24 05:37:14;;;;;;;12.63;3.30;;;14.80;99.90;;;;;;6304958;22;20428;-60
2022/12/24 05:39:39;;;;;;;13.75;4.00;;;14.80;99.90;;;;;;6304856;22;20015;-60
2022/12/24 05:42:05;;;;;;;13.52;3.45;;;14.80;99.90;;;;;;6304245;22;20463;-60
2022/12/24 05:44:31;;;;;;;12.57;3.45;;;14.80;99.90;;;;;;6304297;22;20156;-60
2022/12/24 05:46:56;;;;;;;12.63;4.05;;;14.80;99.90;;;;;;6304374;22;20466;-60
2022/12/24 05:49:22;;;;;;;14.45;3.63;;;14.80;99.90;;;;;;6277300;22;20011;-60
2022/12/24 05:51:47;;;;;;;14.50;3.78;;;14.80;99.90;;;;;;6304751;22;20063;-60
2022/12/24 05:54:13;;;;;;;13.35;3.60;;;14.80;99.90;;;;;;6304247;22;20039;-60
2022/12/24 05:56:38;;;;;;;13.43;3.90;;;14.80;99.90;;;;;;6304534;22;20023;-61
2022/12/24 05:59:04;;;;;;;13.27;4.07;;;14.80;99.90;;;;;;6275909;22;20352;-60
2022/12/24 06:01:30;;;;;;;14.63;3.60;;;14.80;99.90;;;;;;6305136;22;20018;-60
2022/12/24 06:03:56;;;;;;;12.57;3.60;;;14.90;99.90;;;;;;6304710;22;20510;-60
2022/12/24 06:06:25;;;;;;;12.73;3.97;;;14.80;99.90;;;;;;6304740;22;20015;-60
2022/12/24 06:08:52;;;;;;;14.15;3.53;;;14.80;99.90;;;;;;6304394;22;20051;-60
2022/12/24 06:11:26;;;;;;;12.88;3.65;;;14.90;99.90;;;;;;6276558;22;20022;-60
2022/12/24 06:13:52;;;;;;;12.93;3.47;;;14.90;99.90;;;;;;6276268;22;20440;-60
2022/12/24 06:16:19;;;;;;;11.52;3.10;;;14.90;99.90;;;;;;6303522;22;20495;-60
2022/12/24 06:18:45;;;;;;;11.93;3.80;;;14.90;99.90;;;;;;6304618;22;20307;-60
2022/12/24 06:21:11;;;;;;;13.52;3.90;;;14.90;99.90;;;;;;6276796;22;20082;-60
2022/12/24 06:23:39;;;;;;;13.90;4.00;;;14.90;99.90;;;;;;6304568;22;20015;-60
2022/12/24 06:26:06;;;;;;;12.85;3.58;;;14.90;99.90;;;;;;6303738;22;20378;-60
2022/12/24 06:28:35;;;;;;;13.98;4.00;;;14.90;99.90;;;;;;6304306;22;20016;-61
2022/12/24 06:31:02;;;;;;;14.05;3.92;;;14.90;99.90;;;;;;6303215;22;20015;-59
2022/12/24 06:33:28;;;;;;;12.48;3.03;;;14.90;99.90;;;;;;6304473;22;20011;-62
2022/12/24 06:35:54;;;;;;;13.77;3.63;;;14.90;99.90;;;;;;6300894;22;20338;-61
2022/12/24 06:38:19;;;;;;;15.00;3.33;;;14.90;99.90;;;;;;6302955;22;20018;-61
2022/12/24 06:40:45;;;;;;;10.82;3.13;;;14.90;99.90;;;;;;6304110;22;20723;-60
2022/12/24 06:43:12;;;;;;;13.23;3.47;;;14.90;99.90;;;;;;6303499;22;20004;-60
2022/12/24 06:45:38;;;;;;;13.98;3.67;;;14.80;99.90;;;;;;6303744;22;20368;-60
2022/12/24 06:48:05;;;;;;;15.27;3.67;;;14.80;99.90;;;;;;6303257;22;20015;-61
2022/12/24 06:50:32;;;;;;;13.27;3.40;;;14.90;99.90;;;;;;6303851;22;20042;-61
2022/12/24 06:52:58;;;;;;;10.85;3.00;;;14.90;99.90;;;;;;6303985;22;20015;-59
2022/12/24 06:55:23;;;;;;;14.15;3.15;;;14.90;99.90;;;;;;6303898;22;20041;-59
2022/12/24 06:57:49;;;;;;;10.95;3.03;;;14.90;99.90;;;;;;6303249;22;20018;-59
2022/12/24 07:00:15;;;;;;;13.20;3.22;;;14.90;99.90;;;;;;6303418;22;20060;-59
2022/12/24 07:02:44;;;;;;;14.65;3.35;;;14.90;99.90;;;;;;6303788;22;20375;-60
2022/12/24 07:05:11;;;;;;;11.32;3.03;;;14.90;99.90;;;;;;6274249;22;20018;-64
2022/12/24 07:07:40;;;;;;;13.13;3.33;;;14.90;99.90;;;;;;6303726;22;20086;-61
2022/12/24 07:10:07;;;;;;;13.40;2.92;;;14.90;99.90;;;;;;6276169;22;20045;-61
2022/12/24 07:12:32;;;;;;;13.88;3.08;;;14.90;99.90;;;;;;6302820;22;20227;-61
2022/12/24 07:14:58;;;;;;;12.73;3.28;;;14.90;99.90;;;;;;6303778;22;20046;-61
2022/12/24 07:17:24;;;;;;;11.25;3.60;;;14.90;99.90;;;;;;6301723;22;20011;-61
2022/12/24 07:19:49;;;;;;;12.32;3.20;;;15.00;99.90;;;;;;6276225;22;20065;-60
2022/12/24 07:22:15;;;;;;;12.00;3.53;;;15.00;99.90;;;;;;6303867;22;20007;-61
2022/12/24 07:24:40;;;;;;;11.52;2.70;;;14.90;99.90;;;;;;6302298;22;20018;-58
2022/12/24 07:27:07;;;;;;;11.10;3.05;;;14.90;99.90;;;;;;6299228;22;20452;-60
2022/12/24 07:29:33;;;;;;;15.55;3.67;;;15.00;99.90;;;;;;6303842;22;20112;-64
2022/12/24 07:31:59;;;;;;;15.50;3.55;;;15.00;99.90;;;;;;6275719;22;20340;-61
2022/12/24 07:34:24;;;;;;;17.65;3.38;;;15.00;99.90;;;;;;6302039;22;20313;-59
2022/12/24 07:36:50;;;;;;;17.23;3.58;;;15.00;99.90;;;;;;6275471;22;20432;-61
2022/12/24 07:39:15;;;;;;;15.10;3.88;;;15.00;99.90;;;;;;6303659;22;20011;-61
2022/12/24 07:41:42;;;;;;;13.13;3.53;;;15.00;99.90;;;;;;6303114;22;20030;-61
2022/12/24 07:44:12;;;;;;;14.40;3.40;;;15.00;99.90;;;;;;6303546;22;20366;-62
2022/12/24 07:46:38;;;;;;;13.70;3.45;;;15.00;99.90;;;;;;6303263;22;20007;-62
2022/12/24 07:49:03;;;;;;;20.83;4.10;;;14.90;99.90;;;;;;6302881;22;20086;-62
2022/12/24 07:51:29;;;;;;;15.60;3.67;;;14.90;99.90;;;;;;6303132;22;20050;-62
2022/12/24 07:53:55;;;;;;;13.27;3.67;;;14.90;99.90;;;;;;6302747;22;20011;-62
2022/12/24 07:56:20;;;;;;;18.20;5.32;;;14.90;99.90;;;;;;6301110;22;20015;-59
2022/12/24 07:58:46;;;;;;;20.77;4.63;;;14.90;99.90;;;;;;6296564;22;20022;-63
2022/12/24 08:01:12;;;;;;;21.35;4.97;;;14.80;99.90;;;;;;6302781;22;20003;-62
2022/12/24 08:03:38;;;;;;;20.50;4.88;;;14.70;99.90;;;;;;6303149;22;20074;-64
2022/12/24 08:06:03;;;;;;;25.40;5.15;;;14.70;99.90;;;;;;6303080;22;20368;-64
2022/12/24 08:08:29;;;;;;;20.55;4.90;;;14.70;99.90;;;;;;6303666;22;20015;-63
2022/12/24 08:11:01;;;;;;;19.55;5.05;;;14.70;99.90;;;;;;6301991;22;20482;-64
2022/12/24 08:13:27;;;;;;;16.75;4.53;;;14.70;99.90;;;;;;6303038;22;20008;-64
2022/12/24 08:37:21;;;;;;;11.30;3.85;;;16.50;99.90;;;;;;6241657;22;1244976;-46
2022/12/24 08:39:46;;;;;;;11.95;3.85;;;17.00;99.90;;;;;;6247254;23;20019;-46
2022/12/24 08:42:12;;;;;;;12.90;4.40;;;16.80;99.90;;;;;;6249444;23;20023;-45
2022/12/24 08:44:37;;;;;;;12.45;4.47;;;16.70;99.90;;;;;;6250288;23;20016;-46
2022/12/24 08:47:03;;;;;;;14.40;5.30;;;16.50;99.90;;;;;;6248268;23;20016;-48
2022/12/24 08:49:29;;;;;;;19.90;10.02;;;16.40;99.90;;;;;;6250548;23;20384;-51
2022/12/24 08:51:54;;;;;;;15.32;6.28;;;16.30;99.90;;;;;;6248953;23;20012;-47
2022/12/24 08:54:21;;;;;;;12.30;5.65;;;16.20;99.90;;;;;;6248415;23;20012;-46
2022/12/24 08:56:46;;;;;;;13.93;5.43;;;16.10;99.90;;;;;;6250209;23;20058;-47
2022/12/24 08:59:12;;;;;;;13.52;5.45;;;16.10;99.90;;;;;;6250024;23;20012;-45
2022/12/24 09:01:38;;;;;;;13.70;5.10;;;16.00;99.90;;;;;;6248994;23;20087;-47
2022/12/24 09:04:04;;;;;;;12.05;5.10;;;15.90;99.90;;;;;;6248510;23;20051;-46
2022/12/24 09:06:31;;;;;;;12.70;5.00;;;15.80;99.90;;;;;;6250498;23;20043;-46
2022/12/24 09:08:57;;;;;;;12.68;4.55;;;15.80;99.90;;;;;;6249763;22;20047;-48
2022/12/24 09:11:23;;;;;;;14.05;5.43;;;15.70;99.90;;;;;;6249437;23;20007;-46
2022/12/24 09:13:48;;;;;;;12.07;4.40;;;15.60;99.90;;;;;;6250252;22;20012;-46
2022/12/24 09:16:14;;;;;;;13.10;5.30;;;15.60;99.90;;;;;;6248291;23;20089;-49
2022/12/24 09:18:40;;;;;;;12.40;4.95;;;15.50;99.90;;;;;;6247923;23;20020;-47
2022/12/24 09:21:13;;;;;;;13.20;5.20;;;15.50;99.90;;;;;;6249686;23;20012;-49
2022/12/24 09:23:40;;;;;;;14.18;4.88;;;15.50;99.90;;;;;;6250025;22;20019;-47
2022/12/24 09:26:12;;;;;;;14.00;5.15;;;15.40;99.90;;;;;;6248576;22;20008;-46
2022/12/24 09:28:38;;;;;;;13.15;4.65;;;15.40;99.90;;;;;;6250224;22;20092;-49
2022/12/24 09:31:04;;;;;;;13.43;4.97;;;15.30;99.90;;;;;;6249770;23;20393;-48
2022/12/24 09:33:33;;;;;;;14.75;4.57;;;15.30;99.90;;;;;;6250652;22;20008;-47
2022/12/24 09:35:59;;;;;;;16.85;5.13;;;15.30;99.90;;;;;;6258420;22;20012;-46
2022/12/24 09:38:25;;;;;;;11.70;4.07;;;15.20;99.90;;;;;;6273065;22;20016;-48
2022/12/24 09:40:53;;;;;;;13.00;4.50;;;15.20;99.90;;;;;;6273279;22;20008;-48
2022/12/24 09:43:30;;;;;;;11.43;4.45;;;15.20;99.90;;;;;;6271365;22;20328;-48
2022/12/24 09:46:18;;;;;;;13.13;4.60;;;15.20;99.90;;;;;;6271164;22;20016;-49
2022/12/24 09:48:48;;;;;;;13.18;5.20;;;15.10;99.90;;;;;;6270304;22;20050;-48
2022/12/24 09:51:40;;;;;;;20.42;9.32;;;15.10;99.90;;;;;;6271694;22;20011;-51
2022/12/24 09:54:25;;;;;;;49.78;37.42;;;15.10;99.90;;;;;;6272593;22;20087;-49
2022/12/24 09:56:52;;;;;;;51.40;36.95;;;15.10;99.90;;;;;;6246091;22;20026;-48
2022/12/24 09:59:38;;;;;;;46.28;35.00;;;15.10;99.90;;;;;;6271570;22;20022;-49
2022/12/24 10:02:16;;;;;;;45.03;35.42;;;15.10;99.90;;;;;;6273053;22;20023;-49
2022/12/24 10:04:43;;;;;;;41.20;32.65;;;15.00;99.90;;;;;;6273527;22;20016;-49
2022/12/24 10:07:23;;;;;;;40.65;31.08;;;15.10;99.90;;;;;;6272220;22;20058;-51
2022/12/24 10:10:20;;;;;;;37.90;27.90;;;15.00;99.90;;;;;;6272986;22;20019;-51
2022/12/24 10:13:08;;;;;;;36.10;26.23;;;15.00;99.90;;;;;;6246391;22;20019;-48
2022/12/24 10:15:53;;;;;;;35.42;26.00;;;15.00;99.90;;;;;;6244696;22;20375;-47
2022/12/24 10:18:33;;;;;;;36.20;23.88;;;15.00;99.90;;;;;;6273407;22;20332;-47
2022/12/24 10:21:13;;;;;;;33.85;22.85;;;15.00;99.90;;;;;;6272387;22;20011;-48
2022/12/24 10:23:47;;;;;;;29.20;20.92;;;15.00;99.90;;;;;;6273284;22;20073;-48
2022/12/24 10:26:35;;;;;;;27.10;19.10;;;15.00;99.90;;;;;;6273529;22;20007;-48
2022/12/24 10:29:04;;;;;;;28.88;20.08;;;14.90;99.90;;;;;;6272251;22;20011;-48
2022/12/24 10:31:38;;;;;;;26.38;17.73;;;14.90;99.90;;;;;;6272318;22;20018;-49
2022/12/24 10:34:12;;;;;;;25.48;17.35;;;14.90;99.90;;;;;;6244560;22;20326;-48
2022/12/24 10:36:38;;;;;;;26.88;17.60;;;14.90;99.90;;;;;;6271085;22;20020;-48
2022/12/24 10:39:05;;;;;;;26.25;17.23;;;14.90;99.90;;;;;;6271673;22;20095;-49
2022/12/24 10:41:33;;;;;;;23.73;14.80;;;14.90;99.90;;;;;;6246371;22;20015;-49
2022/12/24 10:44:00;;;;;;;23.05;14.65;;;14.90;99.90;;;;;;6272559;22;20012;-50
2022/12/24 10:46:38;;;;;;;22.25;15.23;;;14.90;99.90;;;;;;6272871;22;20022;-48
2022/12/24 10:49:06;;;;;;;23.10;13.32;;;14.90;99.90;;;;;;6271572;22;20051;-48
2022/12/24 10:52:01;;;;;;;20.70;13.38;;;14.90;99.90;;;;;;6273644;22;20321;-50
2022/12/24 10:54:28;;;;;;;17.50;11.05;;;14.90;99.90;;;;;;6273187;22;20375;-48
2022/12/24 10:56:59;;;;;;;18.70;12.13;;;14.90;99.90;;;;;;6269789;22;20309;-46
2022/12/24 10:59:26;;;;;;;19.05;11.30;;;14.90;99.90;;;;;;6272616;22;20007;-47
2022/12/24 11:01:53;;;;;;;19.27;12.35;;;14.90;99.90;;;;;;6273843;22;20043;-46
2022/12/24 11:04:28;;;;;;;17.52;11.02;;;14.80;99.90;;;;;;6244231;22;20012;-48
2022/12/24 11:07:04;;;;;;;18.35;10.95;;;14.80;99.90;;;;;;6245436;22;20066;-48
2022/12/24 11:09:32;;;;;;;17.85;9.77;;;14.80;99.90;;;;;;6273488;22;20309;-47
2022/12/24 11:11:59;;;;;;;16.88;9.25;;;14.80;99.90;;;;;;6272311;22;20058;-47
2022/12/24 11:14:29;;;;;;;17.92;9.68;;;14.70;99.90;;;;;;6272136;22;20062;-49
2022/12/24 11:16:56;;;;;;;16.48;8.95;;;14.70;99.90;;;;;;6246229;22;20452;-47
2022/12/24 11:19:34;;;;;;;14.98;8.50;;;14.70;99.90;;;;;;6272355;22;20047;-46
2022/12/24 11:22:16;;;;;;;13.77;8.35;;;14.90;99.90;;;;;;6273108;22;20313;-48
2022/12/24 11:24:42;;;;;;;14.52;8.07;;;15.20;99.90;;;;;;6273208;22;20008;-51
2022/12/24 11:27:29;;;;;;;15.68;6.90;;;15.60;99.90;;;;;;6269035;22;20381;-46
2022/12/24 11:30:25;;;;;;;12.75;6.40;;;16.00;99.90;;;;;;6243285;22;20011;-51
2022/12/24 11:33:00;;;;;;;12.20;5.70;;;16.30;99.90;;;;;;6272348;22;20079;-48
2022/12/24 11:35:28;;;;;;;13.23;6.00;;;16.60;99.90;;;;;;6272032;22;20392;-49
2022/12/24 11:37:59;;;;;;;21.90;9.10;;;17.00;99.90;;;;;;6270606;22;20039;-48
2022/12/24 11:40:39;;;;;;;33.53;15.80;;;17.30;99.90;;;;;;6272449;22;20011;-48
2022/12/24 11:43:12;;;;;;;98.35;44.78;;;17.70;99.90;;;;;;6244062;22;20069;-76
2022/12/24 11:45:38;;;;;;;58.08;29.70;;;18.10;99.90;;;;;;6243848;22;20019;-59
2022/12/24 11:48:29;;;;;;;43.40;20.58;;;18.40;99.90;;;;;;6269536;22;20027;-68
2022/12/24 11:51:04;;;;;;;26.98;13.20;;;18.60;99.90;;;;;;6269952;22;20012;-57
2022/12/24 11:53:47;;;;;;;25.10;13.18;;;18.70;99.90;;;;;;6271404;22;20023;-57
2022/12/24 11:56:44;;;;;;;26.30;12.18;;;18.80;99.90;;;;;;6271925;22;20019;-58
2022/12/24 11:59:28;;;;;;;26.63;10.48;;;19.10;99.90;;;;;;6272182;22;20018;-58
2022/12/24 12:02:05;;;;;;;25.45;10.93;;;19.30;99.90;;;;;;6272304;22;20077;-58
2022/12/24 12:04:34;;;;;;;18.90;8.73;;;19.70;99.90;;;;;;6272413;22;20008;-55
2022/12/24 12:07:09;;;;;;;20.27;9.43;;;19.90;99.90;;;;;;6219352;22;20020;-56
2022/12/24 12:09:42;;;;;;;20.80;8.68;;;20.20;99.90;;;;;;6269899;22;20015;-58
2022/12/24 12:12:40;;;;;;;17.08;7.72;;;20.30;99.90;;;;;;6272363;22;20015;-67
2022/12/24 12:15:28;;;;;;;15.35;6.82;;;20.50;99.90;;;;;;6270066;22;20015;-56
2022/12/24 12:18:03;;;;;;;14.90;7.45;;;20.60;99.90;;;;;;6271086;22;20102;-55
2022/12/24 12:20:38;;;;;;;14.85;6.40;;;20.70;99.90;;;;;;6273015;22;20012;-56
2022/12/24 12:23:42;;;;;;;13.52;5.80;;;20.60;99.90;;;;;;6271585;22;20015;-63
2022/12/24 12:26:26;;;;;;;14.73;5.13;;;20.30;99.90;;;;;;6195129;22;20095;-56
2022/12/24 12:29:25;;;;;;;17.20;5.60;;;19.90;99.90;;;;;;6270846;22;20318;-56
2022/12/24 12:32:01;;;;;;;15.38;5.72;;;19.60;99.90;;;;;;6272115;22;20007;-56
2022/12/24 12:34:54;;;;;;;14.48;5.40;;;19.40;99.90;;;;;;6272249;22;20012;-55
2022/12/24 12:37:27;;;;;;;16.48;5.13;;;19.20;99.90;;;;;;6269326;22;20019;-55
2022/12/24 12:39:54;;;;;;;15.25;5.55;;;19.00;99.90;;;;;;6272373;22;20325;-58
2022/12/24 12:42:32;;;;;;;13.10;4.78;;;18.80;99.90;;;;;;6271406;22;20012;-58
2022/12/24 12:45:19;;;;;;;12.98;4.65;;;18.60;99.90;;;;;;6271157;22;20012;-58
2022/12/24 12:48:02;;;;;;;14.35;4.60;;;18.40;99.90;;;;;;6271576;22;20392;-57
2022/12/24 12:50:38;;;;;;;12.32;4.97;;;18.30;99.90;;;;;;6245065;22;20376;-57
2022/12/24 12:53:28;;;;;;;16.08;4.75;;;18.10;99.90;;;;;;6244303;22;20014;-57
2022/12/24 12:56:08;;;;;;;15.63;5.40;;;18.00;99.90;;;;;;6271323;22;20011;-57
2022/12/24 12:58:45;;;;;;;15.10;5.20;;;17.90;99.90;;;;;;6245211;22;20502;-57
2022/12/24 13:01:26;;;;;;;13.30;5.25;;;17.80;99.90;;;;;;6269840;22;20018;-57
2022/12/24 13:04:08;;;;;;;13.65;5.15;;;17.70;99.90;;;;;;6271492;22;20429;-57
2022/12/24 13:07:02;;;;;;;14.85;5.05;;;17.60;99.90;;;;;;6245723;22;20016;-56
2022/12/24 13:09:41;;;;;;;13.25;4.63;;;17.50;99.90;;;;;;6271809;22;20024;-57
2022/12/24 13:12:07;;;;;;;13.10;5.07;;;17.30;99.90;;;;;;6244704;22;20490;-57
2022/12/24 13:15:06;;;;;;;12.20;4.55;;;17.30;99.90;;;;;;6273560;22;20015;-57
2022/12/24 13:17:41;;;;;;;15.55;5.72;;;17.20;99.90;;;;;;6274463;22;20063;-57
2022/12/24 13:20:28;;;;;;;14.63;5.63;;;17.10;99.90;;;;;;6273744;22;20098;-58
2022/12/24 13:22:59;;;;;;;12.80;4.72;;;17.00;99.90;;;;;;6273649;22;20035;-58
2022/12/24 13:25:36;;;;;;;14.07;5.07;;;17.00;99.90;;;;;;6273108;22;20057;-58
2022/12/24 13:28:23;;;;;;;11.70;4.43;;;16.90;99.90;;;;;;6274187;22;20023;-58